Time;durP1;ratioP1;P1;durP2;ratioP2;P2;SDS_P1;SDS_P2;PMS_P1;PMS_P2;Temp;Humidity;BMP_temperature;BMP_pressure;BME280_temperature;BME280_humidity;BME280_pressure;Samples;Min_cycle;Max_cycle;Signal;HPM_P1;HPM_P2
2024/04/12 00:01:08;;;;;;;7.03;6.30;;;;;;;15.15;50.03;97770.56;5457146;26;20499;-69
2024/04/12 00:03:36;;;;;;;8.80;6.20;;;;;;;15.13;48.91;97762.66;5475463;26;20580;-69
2024/04/12 00:06:05;;;;;;;7.83;5.53;;;;;;;14.95;50.03;97753.72;5476934;26;20966;-69
2024/04/12 00:08:32;;;;;;;8.57;6.17;;;;;;;15.05;48.84;97759.50;5477201;26;20440;-67
2024/04/12 00:10:59;;;;;;;7.90;6.97;;;;;;;14.84;49.15;97757.69;5475698;26;20618;-68
2024/04/12 00:13:31;;;;;;;7.13;6.17;;;;;;;14.71;49.80;97752.88;5475951;26;20510;-68
2024/04/12 00:15:57;;;;;;;12.17;7.97;;;;;;;14.54;49.40;97755.31;5477589;26;20447;-69
2024/04/12 00:18:26;;;;;;;14.27;7.07;;;;;;;14.58;50.44;97755.13;5473836;26;20467;-68
2024/04/12 00:20:58;;;;;;;8.23;5.80;;;;;;;14.70;49.61;97745.03;5476823;26;20478;-68
2024/04/12 00:23:25;;;;;;;6.23;5.63;;;;;;;14.84;49.52;97750.63;5475422;26;20994;-68
2024/04/12 00:25:55;;;;;;;7.80;5.53;;;;;;;14.63;49.40;97751.47;5477370;26;20451;-68
2024/04/12 00:28:22;;;;;;;7.43;6.23;;;;;;;14.67;49.50;97751.28;5476153;26;20707;-67
2024/04/12 00:30:48;;;;;;;8.43;5.90;;;;;;;14.66;49.61;97760.13;5476584;26;20439;-69
2024/04/12 00:33:19;;;;;;;6.83;5.70;;;;;;;14.64;49.76;97751.38;5474351;26;20603;-68
2024/04/12 00:35:49;;;;;;;8.47;5.10;;;;;;;14.74;49.85;97749.25;5476786;26;20506;-67
2024/04/12 00:38:16;;;;;;;9.33;5.23;;;;;;;14.80;49.46;97746.38;5476626;26;20496;-67
2024/04/12 00:40:46;;;;;;;5.97;5.47;;;;;;;14.83;48.60;97748.88;5480151;26;20459;-68
2024/04/12 00:43:20;;;;;;;6.20;5.20;;;;;;;14.54;48.71;97747.38;5478632;26;20479;-69
2024/04/12 00:45:54;;;;;;;6.57;5.63;;;;;;;14.71;49.23;97750.22;5480891;26;20955;-68
2024/04/12 00:48:21;;;;;;;6.53;5.90;;;;;;;14.60;48.98;97749.81;5480110;26;20455;-68
2024/04/12 00:50:50;;;;;;;6.93;5.87;;;;;;;14.47;49.90;97752.00;5480097;26;20524;-68
2024/04/12 00:53:28;;;;;;;9.50;6.20;;;;;;;14.22;49.80;97753.84;5478829;26;20479;-68
2024/04/12 00:56:00;;;;;;;9.70;6.00;;;;;;;14.39;50.39;97754.94;5480458;26;20552;-69
2024/04/12 00:58:32;;;;;;;11.10;6.90;;;;;;;14.30;50.08;97755.28;5480592;26;20529;-68
2024/04/12 01:01:11;;;;;;;8.70;5.83;;;;;;;14.48;49.10;97753.75;5480128;26;20444;-68
2024/04/12 01:03:47;;;;;;;8.17;6.93;;;;;;;14.48;49.65;97742.28;5478399;26;21048;-68
2024/04/12 01:06:25;;;;;;;10.30;6.40;;;;;;;14.31;49.00;97745.56;5480165;26;20894;-67
2024/04/12 01:08:57;;;;;;;9.40;6.17;;;;;;;14.48;49.59;97745.81;5479112;26;20519;-69
2024/04/12 01:11:24;;;;;;;7.77;6.23;;;;;;;14.49;49.73;97738.75;5478815;26;20571;-69
2024/04/12 01:13:52;;;;;;;13.10;6.80;;;;;;;14.44;49.76;97741.56;5476326;26;20471;-69
2024/04/12 01:16:18;;;;;;;9.50;6.60;;;;;;;14.39;49.59;97739.09;5479073;26;21022;-68
2024/04/12 01:18:45;;;;;;;11.13;7.27;;;;;;;14.30;48.84;97738.59;5479583;26;20519;-68
2024/04/12 01:21:11;;;;;;;9.63;6.70;;;;;;;14.18;49.28;97746.03;5479644;26;21066;-69
2024/04/12 01:23:44;;;;;;;9.37;6.83;;;;;;;14.05;49.73;97741.25;5478006;26;20735;-69
2024/04/12 01:26:17;;;;;;;11.80;5.90;;;;;;;14.19;49.86;97737.19;5478908;26;20309;-69
2024/04/12 01:28:43;;;;;;;7.83;7.03;;;;;;;14.17;49.78;97741.69;5478811;26;20950;-68
2024/04/12 01:31:15;;;;;;;10.90;6.80;;;;;;;14.36;50.02;97744.50;5479090;26;21109;-69
2024/04/12 01:33:42;;;;;;;8.83;6.83;;;;;;;14.49;49.44;97738.75;5475617;26;20460;-69
2024/04/12 01:36:10;;;;;;;14.67;5.80;;;;;;;14.52;49.26;97742.13;5442988;26;20437;-68
2024/04/12 01:38:39;;;;;;;7.43;5.90;;;;;;;14.41;49.23;97736.41;5443068;26;21067;-68
2024/04/12 01:41:05;;;;;;;7.33;6.57;;;;;;;14.40;50.00;97740.81;5442553;26;20449;-68
2024/04/12 01:43:36;;;;;;;9.17;7.83;;;;;;;14.32;49.36;97740.25;5441460;26;20536;-69
2024/04/12 01:46:10;;;;;;;8.10;6.20;;;;;;;14.41;49.61;97744.31;5441546;26;20269;-68
2024/04/12 01:48:36;;;;;;;12.57;6.20;;;;;;;14.32;49.81;97749.94;5442747;26;20440;-68
2024/04/12 01:51:03;;;;;;;8.63;6.37;;;;;;;14.30;49.81;97736.78;5442152;26;20492;-70
2024/04/12 01:53:36;;;;;;;10.43;7.60;;;;;;;14.18;50.36;97740.75;5439922;26;20468;-69
2024/04/12 01:56:03;;;;;;;8.63;7.07;;;;;;;14.16;50.03;97747.00;5443350;26;20558;-68
2024/04/12 01:58:29;;;;;;;6.63;6.03;;;;;;;14.18;49.51;97746.03;5442627;26;20441;-68
2024/04/12 02:00:54;;;;;;;7.30;6.47;;;;;;;14.19;49.71;97745.09;5443271;26;21168;-68
2024/04/12 02:03:21;;;;;;;8.47;6.90;;;;;;;14.16;49.91;97747.88;5441409;26;20251;-69
2024/04/12 02:05:49;;;;;;;10.50;7.27;;;;;;;13.98;49.65;97743.25;5443415;26;20239;-68
2024/04/12 02:08:17;;;;;;;7.90;6.03;;;;;;;14.02;50.27;97741.38;5443008;26;20596;-68
2024/04/12 02:10:46;;;;;;;14.63;8.33;;;;;;;14.10;49.95;97750.75;5444648;26;20995;-68
2024/04/12 02:13:18;;;;;;;11.80;7.23;;;;;;;14.04;49.78;97758.88;5442447;26;20570;-67
2024/04/12 02:15:45;;;;;;;8.53;7.03;;;;;;;13.98;49.50;97749.41;5443455;26;20445;-66
2024/04/12 02:18:13;;;;;;;13.80;6.70;;;;;;;14.14;49.39;97754.13;5441647;26;21247;-67
2024/04/12 02:20:39;;;;;;;11.50;7.50;;;;;;;14.01;49.51;97763.38;5443479;26;20436;-66
2024/04/12 02:23:06;;;;;;;7.97;6.73;;;;;;;14.12;49.40;97762.09;5452660;26;20468;-68
2024/04/12 02:25:36;;;;;;;13.37;7.77;;;;;;;13.94;49.70;97762.78;5450847;26;21146;-68
2024/04/12 02:28:07;;;;;;;9.80;7.10;;;;;;;13.80;49.58;97776.44;5453478;26;20903;-68
2024/04/12 02:30:53;;;;;;;12.97;7.10;;;;;;;13.57;50.41;97771.94;5455060;26;20919;-69
2024/04/12 02:33:20;;;;;;;9.00;7.43;;;;;;;13.40;50.53;97771.66;5444662;26;20453;-67
2024/04/12 02:35:46;;;;;;;13.43;8.23;;;;;;;13.23;51.27;97770.41;5443553;26;20449;-69
2024/04/12 02:38:20;;;;;;;11.73;6.73;;;;;;;13.36;51.17;97770.88;5443954;26;20499;-70
2024/04/12 02:40:47;;;;;;;11.13;7.47;;;;;;;13.41;50.32;97770.75;5451017;26;20489;-69
2024/04/12 02:43:15;;;;;;;15.47;7.27;;;;;;;13.23;50.81;97775.69;5446803;26;20518;-68
2024/04/12 02:45:55;;;;;;;13.00;6.60;;;;;;;13.24;51.86;97774.75;5446440;26;20498;-68
2024/04/12 02:48:21;;;;;;;9.93;6.43;;;;;;;13.11;51.48;97773.44;5448097;26;20943;-70
2024/04/12 02:50:54;;;;;;;9.47;6.73;;;;;;;13.35;51.09;97779.72;5447986;26;20545;-69
2024/04/12 02:53:27;;;;;;;10.97;7.50;;;;;;;13.27;50.35;97779.94;5445971;26;20676;-68
2024/04/12 02:56:10;;;;;;;10.77;6.43;;;;;;;13.30;50.73;97763.19;5444980;26;20573;-68
2024/04/12 02:58:44;;;;;;;12.20;7.00;;;;;;;13.24;51.34;97766.84;5441386;26;20580;-68
2024/04/12 03:01:20;;;;;;;9.13;7.60;;;;;;;13.26;51.27;97767.66;5441553;26;20445;-68
2024/04/12 03:03:45;;;;;;;9.40;7.20;;;;;;;13.13;51.00;97759.31;5439944;26;20536;-67
2024/04/12 03:06:12;;;;;;;11.40;7.13;;;;;;;12.94;52.34;97763.41;5441767;26;21408;-68
2024/04/12 03:08:40;;;;;;;10.50;7.67;;;;;;;12.98;51.59;97764.19;5439237;26;20698;-68
2024/04/12 03:11:22;;;;;;;9.33;7.83;;;;;;;12.94;52.76;97752.88;5442058;26;20551;-67
2024/04/12 03:13:59;;;;;;;15.80;7.37;;;;;;;13.09;51.91;97756.81;5440731;26;20508;-68
2024/04/12 03:16:30;;;;;;;11.10;9.07;;;;;;;13.05;52.05;97755.19;5441997;26;20781;-67
2024/04/12 03:18:57;;;;;;;12.30;7.37;;;;;;;13.14;51.54;97758.38;5440658;26;20528;-68
2024/04/12 03:21:26;;;;;;;11.23;7.50;;;;;;;13.18;51.44;97760.91;5439346;26;20501;-68
2024/04/12 03:23:54;;;;;;;9.20;6.90;;;;;;;13.15;52.08;97759.22;5439944;26;20453;-68
2024/04/12 03:26:27;;;;;;;9.10;7.83;;;;;;;13.16;50.75;97758.34;5441429;26;20499;-68
2024/04/12 03:28:55;;;;;;;8.80;6.60;;;;;;;13.18;51.60;97764.44;5441552;26;20504;-68
2024/04/12 03:31:25;;;;;;;8.53;6.73;;;;;;;13.43;50.94;97766.28;5441157;26;20550;-67
2024/04/12 03:33:54;;;;;;;9.93;6.63;;;;;;;13.49;50.73;97761.66;5443951;26;20904;-68
2024/04/12 03:36:26;;;;;;;9.50;8.50;;;;;;;13.47;50.19;97766.13;5477156;26;20436;-68
2024/04/12 03:41:58;;;;;;;13.77;8.50;;;;;;;13.23;50.11;97761.63;5477205;26;20802;-68
2024/04/12 03:44:34;;;;;;;8.60;7.00;;;;;;;13.40;49.81;97761.97;5476605;26;20663;-68
2024/04/12 03:47:02;;;;;;;11.43;7.40;;;;;;;13.44;50.24;97768.88;5476292;26;20528;-68
2024/04/12 03:49:30;;;;;;;9.63;7.53;;;;;;;13.32;50.29;97759.59;5475175;26;20496;-69
2024/04/12 03:51:56;;;;;;;13.43;9.20;;;;;;;13.11;50.75;97760.28;5476297;26;20527;-69
2024/04/12 03:54:26;;;;;;;10.47;7.77;;;;;;;13.27;50.88;97761.50;5476420;26;20444;-67
2024/04/12 03:56:56;;;;;;;14.80;8.63;;;;;;;13.12;49.92;97756.72;5476626;26;20561;-69
2024/04/12 03:59:28;;;;;;;13.23;8.70;;;;;;;13.00;50.24;97767.66;5477293;26;20557;-68
2024/04/12 04:01:54;;;;;;;11.17;8.53;;;;;;;13.15;50.67;97767.16;5476788;26;20448;-68
2024/04/12 04:04:25;;;;;;;11.77;7.17;;;;;;;13.40;49.97;97766.38;5475957;26;20463;-68
2024/04/12 04:06:55;;;;;;;11.83;7.33;;;;;;;13.51;49.80;97769.50;5476837;26;20451;-68
2024/04/12 04:09:29;;;;;;;12.77;7.40;;;;;;;13.50;49.83;97770.44;5476427;26;20439;-68
2024/04/12 04:11:55;;;;;;;11.40;8.47;;;;;;;13.54;49.66;97766.78;5389571;25;20546;-68
2024/04/12 04:14:27;;;;;;;24.83;10.77;;;;;;;13.10;49.85;97764.66;5355539;26;20461;-69
2024/04/12 04:16:56;;;;;;;10.10;8.33;;;;;;;13.16;50.06;97768.88;5337335;26;20453;-68
2024/04/12 04:19:35;;;;;;;11.40;9.13;;;;;;;13.18;50.22;97769.69;5337890;26;20469;-67
2024/04/12 04:22:05;;;;;;;9.60;8.60;;;;;;;13.37;50.43;97771.75;5337340;26;20433;-68
2024/04/12 04:24:33;;;;;;;15.53;9.50;;;;;;;13.22;50.13;97779.22;5335997;26;20846;-68
2024/04/12 04:27:00;;;;;;;10.67;9.57;;;;;;;13.12;50.59;97780.44;5336795;26;20509;-69
2024/04/12 04:29:26;;;;;;;10.00;8.30;;;;;;;13.29;50.18;97775.50;5337384;26;21177;-68
2024/04/12 04:31:52;;;;;;;12.53;9.03;;;;;;;13.20;49.72;97769.63;5337355;26;20571;-69
2024/04/12 04:34:20;;;;;;;47.70;11.67;;;;;;;13.36;50.08;97770.03;5328402;26;20675;-69
2024/04/12 04:36:49;;;;;;;11.80;9.20;;;;;;;13.44;49.79;97762.72;5304827;26;20863;-69
2024/04/12 04:39:21;;;;;;;11.97;8.20;;;;;;;13.48;50.06;97766.97;5304629;26;20510;-68
2024/04/12 04:41:48;;;;;;;13.17;9.03;;;;;;;13.49;49.03;97777.50;5303157;26;20443;-68
2024/04/12 04:44:17;;;;;;;12.33;10.40;;;;;;;13.10;49.92;97772.56;5302237;26;20532;-67
2024/04/12 04:46:46;;;;;;;13.90;9.70;;;;;;;11.23;54.68;97785.69;5304283;26;20442;-68
2024/04/12 04:49:13;;;;;;;23.50;10.43;;;;;;;10.68;56.50;97779.97;5304126;26;20911;-68
2024/04/12 04:51:39;;;;;;;17.93;10.60;;;;;;;10.35;57.81;97782.41;5303146;26;20510;-68
2024/04/12 04:54:11;;;;;;;15.20;9.70;;;;;;;10.09;58.43;97788.16;5301884;26;21270;-67
2024/04/12 04:56:46;;;;;;;12.60;10.40;;;;;;;9.96;59.34;97786.66;5302880;26;20223;-68
2024/04/12 04:59:17;;;;;;;18.17;10.83;;;;;;;9.90;59.40;97787.66;5303277;26;20752;-67
2024/04/12 05:01:48;;;;;;;20.30;11.00;;;;;;;9.88;59.96;97789.44;5303283;26;20904;-67
2024/04/12 05:04:20;;;;;;;19.47;9.77;;;;;;;9.72;60.98;97785.38;5302154;26;20596;-68
2024/04/12 05:06:52;;;;;;;15.20;9.80;;;;;;;9.68;61.37;97788.91;5302878;26;20819;-68
2024/04/12 05:09:19;;;;;;;10.23;9.03;;;;;;;9.72;61.05;97798.47;5303041;26;20458;-68
2024/04/12 05:11:45;;;;;;;17.40;9.73;;;;;;;9.78;61.29;97787.00;5303615;26;20435;-68
2024/04/12 05:14:14;;;;;;;13.53;9.60;;;;;;;9.93;60.97;97795.44;5302386;26;20462;-68
2024/04/12 05:16:43;;;;;;;17.03;11.43;;;;;;;9.84;61.29;97800.00;5303614;26;20442;-68
2024/04/12 05:19:09;;;;;;;14.80;10.70;;;;;;;9.96;61.45;97813.75;5303748;26;20469;-68
2024/04/12 05:21:41;;;;;;;12.50;9.60;;;;;;;9.99;61.27;97797.06;5302638;26;20498;-68
2024/04/12 05:24:09;;;;;;;10.67;9.67;;;;;;;10.10;61.11;97799.50;5300242;26;20292;-67
2024/04/12 05:26:41;;;;;;;13.97;10.40;;;;;;;10.11;60.81;97795.97;5303216;26;20442;-67
2024/04/12 05:29:12;;;;;;;15.17;9.90;;;;;;;10.44;60.07;97790.97;5302929;26;20507;-67
2024/04/12 05:31:42;;;;;;;13.00;9.43;;;;;;;11.22;57.66;97797.13;5303207;26;20486;-68
2024/04/12 05:34:11;;;;;;;14.03;9.50;;;;;;;12.10;54.35;97793.13;5307191;26;20472;-68
2024/04/12 05:36:37;;;;;;;18.30;10.10;;;;;;;12.78;52.66;97788.50;5337964;26;20441;-67
2024/04/12 05:39:08;;;;;;;12.47;9.53;;;;;;;13.37;50.44;97787.56;5338416;26;20517;-67
2024/04/12 05:41:44;;;;;;;9.43;8.50;;;;;;;14.09;48.67;97790.38;5338078;26;20989;-67
2024/04/12 05:44:14;;;;;;;11.87;9.63;;;;;;;14.37;48.18;97791.09;5336046;26;20547;-67
2024/04/12 05:46:41;;;;;;;8.83;7.80;;;;;;;14.80;46.57;97783.38;5337172;26;20505;-68
2024/04/12 05:49:09;;;;;;;13.90;10.20;;;;;;;14.94;46.40;97788.13;5334448;26;21020;-68
2024/04/12 05:51:41;;;;;;;15.97;11.00;;;;;;;14.85;46.39;97780.56;5317356;26;20459;-67
2024/04/12 05:54:15;;;;;;;14.63;10.10;;;;;;;15.25;45.20;97772.75;5324524;26;20609;-68
2024/04/12 05:56:44;;;;;;;13.63;10.57;;;;;;;15.35;45.08;97778.53;5334834;26;20439;-69
2024/04/12 05:59:13;;;;;;;11.33;10.13;;;;;;;15.15;45.96;97776.69;5323893;26;20461;-68
2024/04/12 06:01:46;;;;;;;12.90;9.53;;;;;;;14.74;46.60;97776.56;5321955;26;20457;-69
2024/04/12 06:04:14;;;;;;;12.80;10.63;;;;;;;14.58;47.15;97780.69;5335319;26;20473;-68
2024/04/12 06:06:43;;;;;;;11.23;10.03;;;;;;;14.43;48.07;97787.38;5324333;26;20544;-68
2024/04/12 06:09:22;;;;;;;13.53;9.43;;;;;;;14.38;48.05;97787.53;5331331;26;20461;-68
2024/04/12 06:11:51;;;;;;;15.83;10.43;;;;;;;14.34;48.13;97783.31;5339094;26;20469;-68
2024/04/12 06:14:21;;;;;;;20.57;10.27;;;;;;;14.57;47.39;97771.91;5338868;26;21675;-68
2024/04/12 06:16:54;;;;;;;11.60;10.40;;;;;;;14.80;47.12;97768.38;5336490;26;21187;-68
2024/04/12 06:19:19;;;;;;;12.83;10.27;;;;;;;15.24;45.56;97773.69;5340756;26;20457;-68
2024/04/12 06:21:45;;;;;;;15.97;9.90;;;;;;;15.22;46.35;97772.03;5336834;26;20465;-68
2024/04/12 06:24:26;;;;;;;13.67;10.10;;;;;;;15.34;45.82;97775.97;5322914;26;20280;-69
2024/04/12 06:26:54;;;;;;;14.57;11.10;;;;;;;14.89;46.78;97785.66;5338333;26;20268;-68
2024/04/12 06:29:22;;;;;;;16.00;9.60;;;;;;;14.74;47.36;97781.84;5336827;26;20469;-68
2024/04/12 06:31:49;;;;;;;17.57;10.20;;;;;;;14.85;47.84;97775.28;5335937;26;20568;-68
2024/04/12 06:34:19;;;;;;;12.50;9.70;;;;;;;15.02;46.94;97776.34;5325771;26;20478;-68
2024/04/12 06:36:47;;;;;;;13.03;9.90;;;;;;;14.94;47.49;97767.84;5311335;26;20468;-68
2024/04/12 06:39:14;;;;;;;11.80;9.63;;;;;;;14.80;47.55;97765.72;5334765;26;20476;-69
2024/04/12 06:41:45;;;;;;;11.60;10.23;;;;;;;14.84;47.84;97765.63;5335540;26;20450;-68
2024/04/12 06:44:19;;;;;;;15.00;10.90;;;;;;;14.66;48.24;97753.97;5330335;26;20676;-68
2024/04/12 06:46:48;;;;;;;11.33;10.10;;;;;;;14.57;49.19;97765.75;5331209;26;20476;-68
2024/04/12 06:49:14;;;;;;;19.67;11.13;;;;;;;15.06;47.89;97750.63;5329422;26;20466;-68
2024/04/12 06:54:25;;;;;;;13.00;10.90;;;;;;;15.74;46.73;97754.00;5315691;26;20520;-69
2024/04/12 06:56:50;;;;;;;10.00;9.10;;;;;;;15.89;46.23;97752.47;5330886;26;20458;-69
2024/04/12 06:59:18;;;;;;;11.83;9.70;;;;;;;15.91;45.64;97755.91;5333879;26;21067;-69
2024/04/12 07:01:46;;;;;;;17.97;10.60;;;;;;;16.08;45.36;97758.69;5330626;26;20349;-69
2024/04/12 07:04:11;;;;;;;11.83;10.50;;;;;;;16.21;45.35;97764.31;5333255;26;20591;-68
2024/04/12 07:06:37;;;;;;;14.57;11.30;;;;;;;17.00;43.65;97753.59;5335203;26;21056;-68
2024/04/12 07:09:08;;;;;;;23.17;11.47;;;;;;;17.23;43.19;97762.25;5315882;26;20278;-68
2024/04/12 07:11:39;;;;;;;14.13;10.97;;;;;;;17.14;43.54;97761.75;5300078;26;20259;-68
2024/04/12 07:14:05;;;;;;;15.33;10.77;;;;;;;17.07;43.55;97776.25;5299791;26;20554;-67
2024/04/12 07:16:35;;;;;;;12.33;11.03;;;;;;;17.28;43.33;97771.69;5326604;26;20472;-67
2024/04/12 07:19:08;;;;;;;12.03;10.07;;;;;;;17.27;43.37;97774.44;5329563;26;20559;-68
2024/04/12 07:21:35;;;;;;;11.97;10.30;;;;;;;17.86;42.55;97778.59;5300027;26;20475;-68
2024/04/12 07:24:02;;;;;;;17.40;11.07;;;;;;;17.98;42.27;97783.25;5300120;26;20470;-70
2024/04/12 07:26:27;;;;;;;13.40;10.27;;;;;;;18.38;41.00;97786.50;5300471;26;21213;-67
2024/04/12 07:28:59;;;;;;;11.63;10.43;;;;;;;18.89;40.15;97788.22;5299750;26;20534;-66
2024/04/12 07:31:36;;;;;;;12.37;11.00;;;;;;;18.86;40.26;97788.41;5300348;26;20235;-67
2024/04/12 07:34:02;;;;;;;15.20;10.53;;;;;;;18.57;40.55;97796.16;5305809;26;20616;-69
2024/04/12 07:36:32;;;;;;;16.10;11.07;;;;;;;18.11;41.40;97796.75;5335165;26;20473;-67
2024/04/12 07:39:07;;;;;;;16.27;11.70;;;;;;;16.96;44.32;97799.78;5336146;26;20971;-67
2024/04/12 07:41:37;;;;;;;15.50;10.90;;;;;;;17.69;42.89;97800.66;5337562;26;20461;-68
2024/04/12 07:44:04;;;;;;;12.63;11.33;;;;;;;17.97;42.41;97797.47;5334981;26;20888;-67
2024/04/12 07:46:33;;;;;;;14.73;11.63;;;;;;;17.89;43.07;97799.66;5337435;26;20453;-68
2024/04/12 07:49:02;;;;;;;14.17;11.67;;;;;;;18.14;42.44;97803.69;5335549;26;20473;-67
2024/04/12 07:51:31;;;;;;;11.80;10.37;;;;;;;17.53;43.99;97812.97;5336011;26;20498;-67
2024/04/12 07:54:03;;;;;;;12.50;10.70;;;;;;;17.91;42.90;97813.72;5336504;26;20815;-69
2024/04/12 07:56:37;;;;;;;13.93;11.20;;;;;;;18.02;42.96;97812.31;5339665;26;20537;-69
2024/04/12 07:59:13;;;;;;;16.43;10.97;;;;;;;18.73;41.72;97806.78;5338899;26;20472;-68
2024/04/12 08:01:40;;;;;;;16.43;12.70;;;;;;;18.35;41.99;97807.94;5335305;26;20495;-68
2024/04/12 08:04:05;;;;;;;15.33;10.40;;;;;;;19.04;41.14;97800.69;5299862;26;20486;-68
2024/04/12 08:06:36;;;;;;;13.30;10.80;;;;;;;19.22;40.35;97796.13;5299837;26;21490;-67
2024/04/12 08:09:06;;;;;;;13.37;11.97;;;;;;;19.40;40.97;97794.25;5333599;26;20310;-68
2024/04/12 08:11:35;;;;;;;19.40;12.60;;;;;;;19.67;40.05;97789.97;5334889;26;21343;-68
2024/04/12 08:14:08;;;;;;;13.20;11.60;;;;;;;18.92;41.84;97785.38;5334404;26;20468;-67
2024/04/12 08:16:37;;;;;;;18.00;11.13;;;;;;;19.75;40.80;97784.22;5326247;26;20507;-67
2024/04/12 08:19:37;;;;;;;14.60;10.73;;;;;;;19.88;40.32;97779.03;5346934;26;20513;-69
2024/04/12 08:22:03;;;;;;;16.10;11.57;;;;;;;19.96;39.90;97775.91;5350677;26;20790;-69
2024/04/12 08:24:29;;;;;;;14.63;10.67;;;;;;;20.42;39.07;97778.44;5331343;26;20529;-67
2024/04/12 08:26:57;;;;;;;13.20;10.30;;;;;;;20.84;38.30;97766.94;5343323;26;20290;-68
2024/04/12 08:29:29;;;;;;;13.27;11.33;;;;;;;20.49;39.06;97767.31;5335524;26;20230;-68
2024/04/12 08:32:11;;;;;;;11.10;9.37;;;;;;;20.97;38.26;97764.31;5331366;26;20485;-69
2024/04/12 08:34:44;;;;;;;12.47;11.37;;;;;;;20.75;37.73;97762.19;5314077;26;21516;-68
2024/04/12 08:37:13;;;;;;;14.20;11.13;;;;;;;20.93;37.64;97757.50;5319551;26;20469;-68
2024/04/12 08:39:55;;;;;;;14.47;11.90;;;;;;;21.24;37.04;97766.19;5334100;26;20477;-68
2024/04/12 08:42:28;;;;;;;13.20;11.80;;;;;;;21.49;36.67;97760.09;5310164;26;20473;-69
2024/04/12 08:45:00;;;;;;;20.77;12.77;;;;;;;21.65;35.97;97768.81;5328728;26;21473;-68
2024/04/12 08:47:32;;;;;;;17.60;12.20;;;;;;;20.68;36.74;97769.72;5323477;26;20454;-68
2024/04/12 08:50:03;;;;;;;15.70;13.27;;;;;;;20.75;36.95;97770.19;5331313;26;20461;-68
2024/04/12 08:52:43;;;;;;;20.23;13.23;;;;;;;21.29;36.48;97766.75;5323443;26;20598;-67
2024/04/12 08:55:15;;;;;;;20.50;12.73;;;;;;;21.67;36.94;97769.56;5330861;26;20653;-66
2024/04/12 08:57:41;;;;;;;18.00;12.00;;;;;;;21.36;35.46;97765.38;5335321;26;20574;-66
2024/04/12 09:00:18;;;;;;;16.60;13.70;;;;;;;21.62;35.77;97766.34;5330248;26;20542;-68
2024/04/12 09:03:25;;;;;;;20.10;13.50;;;;;;;20.47;36.24;97763.88;5318424;26;20527;-67
2024/04/12 09:05:56;;;;;;;15.10;12.10;;;;;;;20.69;36.71;97759.88;5320805;26;21405;-68
2024/04/12 09:08:28;;;;;;;14.43;12.93;;;;;;;21.56;37.76;97761.41;5304576;26;21205;-70
2024/04/12 09:10:59;;;;;;;16.73;12.50;;;;;;;21.69;36.54;97756.97;5303248;26;21332;-70
2024/04/12 09:13:27;;;;;;;22.70;13.43;;;;;;;21.53;36.35;97743.78;5299319;26;20597;-70
2024/04/12 09:15:53;;;;;;;19.63;12.03;;;;;;;21.70;36.51;97750.66;5303344;26;20478;-69
2024/04/12 09:18:26;;;;;;;13.70;11.87;;;;;;;22.04;35.35;97739.47;5311923;26;20470;-69
2024/04/12 09:21:01;;;;;;;13.73;11.87;;;;;;;22.07;35.92;97734.78;5331711;26;20750;-68
2024/04/12 09:23:34;;;;;;;16.87;14.10;;;;;;;21.37;35.96;97732.38;5334029;26;20527;-69
2024/04/12 09:26:21;;;;;;;18.70;11.20;;;;;;;21.54;36.14;97731.25;5331123;26;20521;-69
2024/04/12 09:28:46;;;;;;;15.73;9.83;;;;;;;21.93;35.49;97732.22;5316362;26;20523;-68
2024/04/12 09:34:22;;;;;;;10.60;9.10;;;;;;;22.37;33.98;97729.16;5337945;26;20339;-69
2024/04/12 09:37:01;;;;;;;11.77;8.97;;;;;;;22.46;32.73;97726.78;5341462;26;20456;-69
2024/04/12 09:42:14;;;;;;;9.60;8.50;;;;;;;22.55;32.52;97731.47;5328163;26;20492;-70
2024/04/12 09:44:48;;;;;;;9.50;8.20;;;;;;;22.87;33.32;97729.16;5340615;26;20492;-70
2024/04/12 10:39:49;;;;;;;12.33;7.00;;;;;;;20.53;33.49;97706.66;5300946;26;20531;-69
2024/04/12 10:42:25;;;;;;;8.03;6.40;;;;;;;20.86;34.16;97719.66;5321763;26;20865;-69
2024/04/12 10:44:56;;;;;;;6.87;6.10;;;;;;;21.50;32.26;97713.75;5326987;26;20476;-70
2024/04/12 10:47:25;;;;;;;9.30;7.80;;;;;;;21.33;32.21;97712.16;5334105;26;20530;-69
2024/04/12 10:49:51;;;;;;;10.73;7.47;;;;;;;20.84;34.16;97704.72;5319635;26;20516;-70
2024/04/12 10:52:28;;;;;;;11.60;7.80;;;;;;;20.69;33.80;97710.09;5334434;26;20461;-69
2024/04/12 10:54:57;;;;;;;9.60;7.40;;;;;;;20.70;33.65;97695.78;5316736;26;20683;-69
2024/04/12 10:57:23;;;;;;;7.20;6.50;;;;;;;20.98;33.74;97694.00;5300172;26;20459;-67
2024/04/12 10:59:51;;;;;;;9.77;8.10;;;;;;;21.33;32.41;97694.34;5299564;26;21017;-68
2024/04/12 11:02:18;;;;;;;8.47;7.57;;;;;;;21.60;32.63;97689.94;5313881;26;20303;-69
2024/04/12 11:07:27;;;;;;;8.60;7.77;;;;;;;21.28;33.36;97693.81;5334079;26;20584;-69
2024/04/12 11:10:03;;;;;;;10.70;7.37;;;;;;;21.33;33.79;97694.34;5303618;26;20486;-70
2024/04/12 11:12:29;;;;;;;9.77;8.77;;;;;;;21.85;31.71;97691.78;5324730;26;20230;-69
2024/04/12 11:31:27;;;;;;;8.73;7.83;;;;;;;20.70;33.28;97678.94;5328117;26;20505;-65
2024/04/12 11:33:52;;;;;;;12.97;7.27;;;;;;;20.72;33.28;97671.69;5329410;26;20528;-64
2024/04/12 11:36:20;;;;;;;10.93;7.20;;;;;;;20.42;31.30;97675.31;5320497;26;20465;-63
2024/04/12 11:38:47;;;;;;;9.73;7.97;;;;;;;19.98;32.66;97670.94;5333326;26;20230;-66
2024/04/12 11:41:16;;;;;;;8.47;7.43;;;;;;;19.82;32.52;97678.19;5379606;26;20473;-64
2024/04/12 11:43:45;;;;;;;9.87;6.73;;;;;;;20.09;31.89;97672.94;5328299;26;20453;-64
2024/04/12 11:46:14;;;;;;;10.83;6.97;;;;;;;20.56;31.67;97669.13;5313498;26;21323;-65
2024/04/12 11:48:42;;;;;;;8.63;7.67;;;;;;;20.97;30.71;97670.06;5315187;26;21137;-65
2024/04/12 11:51:09;;;;;;;8.57;6.40;;;;;;;20.83;31.14;97669.16;5327753;26;20533;-65
2024/04/12 11:53:37;;;;;;;10.73;6.80;;;;;;;21.25;30.64;97669.94;5325598;26;20592;-64
2024/04/12 11:56:03;;;;;;;10.00;7.20;;;;;;;21.55;30.40;97663.53;5327579;26;20631;-65
2024/04/12 11:58:29;;;;;;;8.97;7.13;;;;;;;21.31;30.91;97660.69;5321626;26;20828;-65
2024/04/12 12:00:54;;;;;;;10.20;8.40;;;;;;;21.30;30.77;97657.16;5329609;26;20472;-65
2024/04/12 12:03:20;;;;;;;10.23;8.63;;;;;;;21.08;30.92;97655.06;5325896;26;21081;-65
2024/04/12 12:05:52;;;;;;;11.23;8.50;;;;;;;21.23;30.42;97641.66;5333210;26;20403;-66
2024/04/12 12:08:25;;;;;;;16.20;8.33;;;;;;;21.15;30.39;97644.84;5323756;26;20231;-66
2024/04/12 12:10:51;;;;;;;11.40;9.40;;;;;;;20.54;31.34;97635.50;5331189;26;20481;-65
2024/04/12 12:13:16;;;;;;;12.70;7.80;;;;;;;21.14;31.05;97648.44;5323238;26;20517;-65
2024/04/12 12:15:42;;;;;;;11.20;7.67;;;;;;;21.06;31.09;97638.28;5326818;26;20294;-66
2024/04/12 12:18:07;;;;;;;11.13;8.30;;;;;;;20.83;32.75;97638.94;5332769;26;20286;-66
2024/04/12 12:20:32;;;;;;;9.30;8.40;;;;;;;20.73;32.52;97631.53;5333924;26;20253;-66
2024/04/12 12:22:58;;;;;;;9.50;8.70;;;;;;;20.48;32.67;97626.94;5331831;26;20298;-66
2024/04/12 12:25:26;;;;;;;9.53;8.50;;;;;;;20.04;33.02;97630.59;5334265;26;20227;-65
2024/04/12 12:27:54;;;;;;;11.90;8.93;;;;;;;20.18;33.02;97627.06;5333200;26;20626;-66
2024/04/12 12:30:22;;;;;;;15.20;8.40;;;;;;;20.42;33.00;97618.47;5333529;26;20583;-66
2024/04/12 12:32:49;;;;;;;11.40;7.67;;;;;;;20.45;33.50;97616.44;5333737;26;20469;-65
2024/04/12 12:35:23;;;;;;;10.33;9.33;;;;;;;20.33;33.28;97619.91;5312123;26;20470;-66
2024/04/12 12:37:50;;;;;;;10.00;9.10;;;;;;;20.32;32.92;97617.34;5301433;26;21237;-66
2024/04/12 12:40:21;;;;;;;13.00;8.93;;;;;;;20.19;33.90;97618.09;5303132;26;20501;-66
2024/04/12 12:42:55;;;;;;;10.23;9.03;;;;;;;20.34;33.22;97618.97;5303474;26;20519;-67
2024/04/12 12:45:20;;;;;;;9.93;7.43;;;;;;;20.43;33.52;97613.06;5305765;26;20454;-66
2024/04/12 12:47:47;;;;;;;15.40;9.13;;;;;;;20.29;32.95;97605.94;5308681;26;20827;-65
2024/04/12 12:50:23;;;;;;;13.10;9.10;;;;;;;20.39;33.09;97598.19;5308181;26;20227;-66
2024/04/12 12:52:51;;;;;;;12.60;9.83;;;;;;;20.19;33.04;97602.13;5309473;26;20564;-67
2024/04/12 12:55:22;;;;;;;11.40;8.77;;;;;;;20.20;33.29;97595.00;5308832;26;20486;-66
2024/04/12 12:58:09;;;;;;;11.23;8.90;;;;;;;20.37;33.14;97594.78;5303077;26;20454;-66
2024/04/12 13:00:44;;;;;;;12.07;9.70;;;;;;;20.49;33.25;97583.31;5302425;26;20586;-66